Time;durP1;ratioP1;P1;durP2;ratioP2;P2;SDS_P1;SDS_P2;PMS_P1;PMS_P2;Temp;Humidity;BMP_temperature;BMP_pressure;BME280_temperature;BME280_humidity;BME280_pressure;Samples;Min_cycle;Max_cycle;Signal;HPM_P1;HPM_P2
2022/09/25 00:00:50;;;;;;;19.92;12.40;;;;;;;;;;4939504;29;20043;-77
2022/09/25 00:03:16;;;;;;;21.02;12.90;;;;;;;;;;4939788;29;20020;-78
2022/09/25 00:05:44;;;;;;;18.70;12.20;;;;;;;;;;4922522;29;20475;-77
2022/09/25 00:08:10;;;;;;;18.15;11.77;;;;;;;;;;4921529;29;20155;-77
2022/09/25 00:10:42;;;;;;;19.85;12.23;;;;;;;;;;4936809;29;20114;-77
2022/09/25 00:13:08;;;;;;;24.73;14.48;;;;;;;;;;4937818;29;20032;-77
2022/09/25 00:15:33;;;;;;;20.42;13.52;;;;;;;;;;4937554;29;20111;-77
2022/09/25 00:17:59;;;;;;;20.77;12.95;;;;;;;;;;4937061;29;20103;-77
2022/09/25 00:20:24;;;;;;;20.67;12.60;;;;;;;;;;4919673;29;20033;-77
2022/09/25 00:22:52;;;;;;;21.13;13.50;;;;;;;;;;4920160;29;20137;-77
2022/09/25 00:25:17;;;;;;;20.25;12.52;;;;;;;;;;4919799;29;20020;-77
2022/09/25 00:27:44;;;;;;;17.63;12.55;;;;;;;;;;4919739;29;20094;-80
2022/09/25 00:30:10;;;;;;;20.67;12.43;;;;;;;;;;4921474;29;20031;-79
2022/09/25 00:32:36;;;;;;;22.73;12.52;;;;;;;;;;4921195;29;20035;-79
2022/09/25 00:35:01;;;;;;;17.60;11.07;;;;;;;;;;4921553;29;20023;-79
2022/09/25 00:37:28;;;;;;;19.52;11.88;;;;;;;;;;4937677;29;20046;-77
2022/09/25 00:39:53;;;;;;;17.42;10.77;;;;;;;;;;4920144;29;20031;-77
2022/09/25 00:42:24;;;;;;;16.55;11.45;;;;;;;;;;4920894;29;20035;-79
2022/09/25 00:44:51;;;;;;;;;;;;;;;;;;4921806;29;20032;-79
2022/09/25 00:47:19;;;;;;;14.15;10.70;;;;;;;;;;4922100;29;19920;-78
2022/09/25 00:49:45;;;;;;;14.30;10.00;;;;;;;;;;4920367;29;20388;-78
2022/09/25 00:52:14;;;;;;;14.65;9.95;;;;;;;;;;4920077;29;20043;-78
2022/09/25 00:54:42;;;;;;;13.48;10.23;;;;;;;;;;4937351;29;20027;-78
2022/09/25 00:57:11;;;;;;;13.82;9.65;;;;;;;;;;4937013;29;20147;-75
2022/09/25 00:59:38;;;;;;;12.82;9.70;;;;;;;;;;4918505;29;20036;-76
2022/09/25 01:02:06;;;;;;;12.70;9.70;;;;;;;;;;4936171;29;20400;-77
2022/09/25 01:04:33;;;;;;;16.58;10.75;;;;;;;;;;4936167;29;20035;-77
2022/09/25 01:06:58;;;;;;;15.13;11.07;;;;;;;;;;4936081;29;20556;-77
2022/09/25 01:09:24;;;;;;;15.00;10.68;;;;;;;;;;4918716;29;20119;-76
2022/09/25 01:11:50;;;;;;;13.77;9.85;;;;;;;;;;4935450;29;20086;-76
2022/09/25 01:14:16;;;;;;;16.10;10.27;;;;;;;;;;4935794;29;20038;-76
2022/09/25 01:16:45;;;;;;;12.00;9.40;;;;;;;;;;4936025;29;20036;-76
2022/09/25 01:19:21;;;;;;;13.93;9.65;;;;;;;;;;4936586;29;20027;-77
2022/09/25 01:22:06;;;;;;;15.45;10.25;;;;;;;;;;4937133;29;20031;-77
2022/09/25 01:24:31;;;;;;;16.52;10.35;;;;;;;;;;4920130;29;20087;-76
2022/09/25 01:27:05;;;;;;;15.02;10.50;;;;;;;;;;4937222;29;20027;-77
2022/09/25 01:29:32;;;;;;;11.48;9.48;;;;;;;;;;4937092;29;20119;-77
2022/09/25 01:32:02;;;;;;;13.38;9.77;;;;;;;;;;4936192;29;20051;-76
2022/09/25 01:34:33;;;;;;;14.57;9.52;;;;;;;;;;4918517;29;20043;-76
2022/09/25 01:37:04;;;;;;;14.73;9.93;;;;;;;;;;4935773;29;20050;-76
2022/09/25 01:39:33;;;;;;;15.07;9.88;;;;;;;;;;4918365;29;20067;-76
2022/09/25 01:42:05;;;;;;;16.30;9.30;;;;;;;;;;4918257;29;20413;-76
2022/09/25 01:44:41;;;;;;;12.80;9.82;;;;;;;;;;4935448;29;20038;-76
2022/09/25 01:47:09;;;;;;;15.48;9.50;;;;;;;;;;4936708;29;20032;-75
2022/09/25 01:49:41;;;;;;;14.00;9.60;;;;;;;;;;4919481;29;20028;-76
2022/09/25 01:52:09;;;;;;;15.07;9.27;;;;;;;;;;4936617;29;20032;-76
2022/09/25 01:54:44;;;;;;;14.40;9.25;;;;;;;;;;4918320;29;20032;-76
2022/09/25 01:57:28;;;;;;;13.23;9.32;;;;;;;;;;4934792;29;20079;-76
2022/09/25 02:00:03;;;;;;;11.32;8.85;;;;;;;;;;4901551;29;20043;-76
2022/09/25 02:02:41;;;;;;;13.00;9.63;;;;;;;;;;4934553;29;20039;-76
2022/09/25 02:05:11;;;;;;;13.38;9.10;;;;;;;;;;4917617;29;20040;-76
2022/09/25 02:07:41;;;;;;;13.13;8.45;;;;;;;;;;4934585;29;20044;-76
2022/09/25 02:10:13;;;;;;;13.10;9.30;;;;;;;;;;4934545;29;20488;-75
2022/09/25 02:12:46;;;;;;;13.23;9.13;;;;;;;;;;4921182;29;20246;-76
2022/09/25 02:15:17;;;;;;;12.55;8.68;;;;;;;;;;4920722;29;20059;-76
2022/09/25 02:20:33;;;;;;;12.95;9.00;;;;;;;;;;4939638;29;20043;-78
2022/09/25 02:23:14;;;;;;;11.68;8.90;;;;;;;;;;4922076;29;20071;-77
2022/09/25 02:25:41;;;;;;;11.60;8.57;;;;;;;;;;4944834;29;20035;-87
2022/09/25 02:28:11;;;;;;;13.23;8.82;;;;;;;;;;4959772;29;20027;-85
2022/09/25 02:30:36;;;;;;;10.13;8.48;;;;;;;;;;4960612;29;20032;-85
2022/09/25 02:33:02;;;;;;;13.00;8.63;;;;;;;;;;4925401;29;20031;-78
2022/09/25 02:35:28;;;;;;;11.82;8.45;;;;;;;;;;4923614;29;20119;-78
2022/09/25 02:38:00;;;;;;;10.68;7.90;;;;;;;;;;4940530;29;20068;-78
2022/09/25 02:40:47;;;;;;;13.40;8.30;;;;;;;;;;4939316;29;20038;-78
2022/09/25 02:43:18;;;;;;;11.35;7.53;;;;;;;;;;4938676;29;20031;-77
2022/09/25 02:45:49;;;;;;;9.90;7.85;;;;;;;;;;4921854;29;20054;-78
2022/09/25 02:48:22;;;;;;;10.25;7.25;;;;;;;;;;4942046;29;20024;-77
2022/09/25 02:51:03;;;;;;;10.25;7.93;;;;;;;;;;4943383;29;20126;-78
2022/09/25 02:53:43;;;;;;;11.57;8.20;;;;;;;;;;4925287;29;20485;-77
2022/09/25 02:56:15;;;;;;;8.65;7.50;;;;;;;;;;4924676;29;20703;-77
2022/09/25 02:58:47;;;;;;;9.02;7.45;;;;;;;;;;4908694;29;20155;-78
2022/09/25 03:01:15;;;;;;;10.05;7.45;;;;;;;;;;4940209;29;20043;-78
2022/09/25 03:03:41;;;;;;;10.05;6.90;;;;;;;;;;4923721;29;20025;-78
2022/09/25 03:06:07;;;;;;;9.45;7.20;;;;;;;;;;4923500;29;20810;-78
2022/09/25 03:08:37;;;;;;;11.65;7.50;;;;;;;;;;4940362;29;20028;-77
2022/09/25 03:11:11;;;;;;;10.90;8.02;;;;;;;;;;4940653;29;20060;-78
2022/09/25 03:13:36;;;;;;;10.25;8.02;;;;;;;;;;4939631;29;20050;-77
2022/09/25 03:16:04;;;;;;;9.20;6.85;;;;;;;;;;4922751;29;20031;-77
2022/09/25 03:18:30;;;;;;;8.95;7.18;;;;;;;;;;4922523;29;20381;-77
2022/09/25 03:20:55;;;;;;;10.30;7.60;;;;;;;;;;4939317;29;20030;-77
2022/09/25 03:23:21;;;;;;;8.70;6.85;;;;;;;;;;4938010;29;20066;-77
2022/09/25 03:25:46;;;;;;;9.77;7.18;;;;;;;;;;4939310;29;20055;-77
2022/09/25 03:28:12;;;;;;;9.07;7.13;;;;;;;;;;4921851;29;20087;-77
2022/09/25 03:30:42;;;;;;;8.23;6.90;;;;;;;;;;4922084;29;20031;-77
2022/09/25 03:33:11;;;;;;;8.93;7.05;;;;;;;;;;4939025;29;20036;-77
2022/09/25 03:35:37;;;;;;;10.43;7.10;;;;;;;;;;4922736;29;20058;-78
2022/09/25 03:38:03;;;;;;;9.63;7.05;;;;;;;;;;4920562;29;20028;-77
2022/09/25 03:40:30;;;;;;;9.57;7.18;;;;;;;;;;4921649;29;20499;-78
2022/09/25 03:42:55;;;;;;;10.20;6.50;;;;;;;;;;4939394;29;20038;-77
2022/09/25 03:45:20;;;;;;;10.20;6.75;;;;;;;;;;4939080;29;20038;-77
2022/09/25 03:47:46;;;;;;;9.18;7.00;;;;;;;;;;4921702;29;20473;-77
2022/09/25 03:50:11;;;;;;;9.55;7.07;;;;;;;;;;4921943;29;20031;-77
2022/09/25 03:52:44;;;;;;;9.27;6.85;;;;;;;;;;4938874;29;20464;-77
2022/09/25 03:55:10;;;;;;;13.50;9.05;;;;;;;;;;4921591;29;20035;-77
2022/09/25 03:57:36;;;;;;;9.55;6.93;;;;;;;;;;4938701;29;20400;-77
2022/09/25 04:00:05;;;;;;;11.32;7.05;;;;;;;;;;4921542;29;20036;-76
2022/09/25 04:02:37;;;;;;;9.68;7.05;;;;;;;;;;4940483;29;20020;-78
2022/09/25 04:05:03;;;;;;;93.35;48.67;;;;;;;;;;4938755;29;20193;-78
2022/09/25 04:07:28;;;;;;;77.65;42.28;;;;;;;;;;4940974;29;20035;-82
2022/09/25 04:09:53;;;;;;;56.92;33.72;;;;;;;;;;4949926;29;20028;-81
2022/09/25 04:12:20;;;;;;;27.38;19.65;;;;;;;;;;4940333;29;20424;-77
2022/09/25 04:14:45;;;;;;;11.95;8.70;;;;;;;;;;4918883;29;20039;-77
2022/09/25 04:17:11;;;;;;;7.40;6.05;;;;;;;;;;4918708;29;20122;-77
2022/09/25 04:19:37;;;;;;;7.30;6.50;;;;;;;;;;4936117;29;20036;-77
2022/09/25 04:22:04;;;;;;;6.78;6.07;;;;;;;;;;4917080;29;20494;-77
2022/09/25 04:24:48;;;;;;;7.28;6.07;;;;;;;;;;4934969;29;20032;-77
2022/09/25 04:27:14;;;;;;;7.18;5.40;;;;;;;;;;4935162;29;20028;-77
2022/09/25 04:29:39;;;;;;;7.05;6.03;;;;;;;;;;4934479;29;20035;-77
2022/09/25 04:34:51;;;;;;;10.45;7.75;;;;;;;;;;4933284;29;20411;-78
2022/09/25 04:37:17;;;;;;;14.85;10.52;;;;;;;;;;4917506;29;20396;-78
2022/09/25 04:39:42;;;;;;;14.43;8.82;;;;;;;;;;4935037;29;20031;-78
2022/09/25 04:42:07;;;;;;;9.52;7.20;;;;;;;;;;4934894;29;20028;-78
2022/09/25 04:44:33;;;;;;;6.97;6.28;;;;;;;;;;4934959;29;20107;-78
2022/09/25 04:46:58;;;;;;;11.20;6.03;;;;;;;;;;4901784;29;20542;-79
2022/09/25 04:49:23;;;;;;;8.25;6.38;;;;;;;;;;4917747;29;20039;-79
2022/09/25 04:51:49;;;;;;;14.77;9.18;;;;;;;;;;4917511;29;20023;-79
2022/09/25 04:54:15;;;;;;;8.98;6.78;;;;;;;;;;4934770;29;20028;-79
2022/09/25 04:56:43;;;;;;;7.45;5.50;;;;;;;;;;4934932;29;20035;-78
2022/09/25 04:59:10;;;;;;;11.63;6.30;;;;;;;;;;4936676;29;20047;-72
2022/09/25 05:01:36;;;;;;;7.53;6.30;;;;;;;;;;4917960;29;20274;-76
2022/09/25 05:04:01;;;;;;;10.15;6.50;;;;;;;;;;4937169;29;20111;-79
2022/09/25 05:06:36;;;;;;;9.85;7.57;;;;;;;;;;5172455;27;19946;-83
2022/09/25 05:09:02;;;;;;;10.20;6.53;;;;;;;;;;5151580;27;20112;-82
2022/09/25 05:11:27;;;;;;;20.23;13.90;;;;;;;;;;5133081;27;20015;-82
2022/09/25 05:13:53;;;;;;;22.20;11.93;;;;;;;;;;5151137;27;20023;-82
2022/09/25 05:16:18;;;;;;;14.45;10.65;;;;;;;;;;5151478;27;20014;-82
2022/09/25 05:18:44;;;;;;;7.78;6.88;;;;;;;;;;5151414;27;20027;-81
2022/09/25 05:21:10;;;;;;;9.95;6.82;;;;;;;;;;5151338;27;20376;-80
2022/09/25 05:23:35;;;;;;;10.30;8.18;;;;;;;;;;5151410;27;20035;-77
2022/09/25 05:26:00;;;;;;;15.65;11.00;;;;;;;;;;5150835;27;20034;-77
2022/09/25 05:28:29;;;;;;;13.27;10.27;;;;;;;;;;5151229;27;20472;-76
2022/09/25 05:30:57;;;;;;;12.32;7.82;;;;;;;;;;5151145;27;20019;-77
2022/09/25 05:33:22;;;;;;;9.80;6.90;;;;;;;;;;5150804;27;20461;-80
2022/09/25 05:35:47;;;;;;;7.95;6.28;;;;;;;;;;5151030;27;20060;-78
2022/09/25 05:38:13;;;;;;;8.07;5.75;;;;;;;;;;5152386;27;20030;-76
2022/09/25 05:40:38;;;;;;;6.10;5.50;;;;;;;;;;5116457;27;20022;-77
2022/09/25 05:43:05;;;;;;;7.57;5.50;;;;;;;;;;5151667;27;20480;-77
2022/09/25 05:45:32;;;;;;;6.47;5.68;;;;;;;;;;5151852;27;20027;-77
2022/09/25 05:48:07;;;;;;;6.45;5.70;;;;;;;;;;5151832;27;20031;-77
2022/09/25 05:50:32;;;;;;;6.65;5.95;;;;;;;;;;5133532;27;20023;-77
2022/09/25 05:53:01;;;;;;;6.35;5.72;;;;;;;;;;5151483;27;20371;-76
2022/09/25 05:55:27;;;;;;;7.05;5.63;;;;;;;;;;5133083;27;20027;-75
2022/09/25 05:57:52;;;;;;;8.45;5.95;;;;;;;;;;5133582;27;20409;-76
2022/09/25 06:00:18;;;;;;;8.93;7.20;;;;;;;;;;5150514;27;20035;-77
2022/09/25 06:02:43;;;;;;;14.15;11.20;;;;;;;;;;5150751;27;20015;-77
2022/09/25 06:05:10;;;;;;;14.48;11.60;;;;;;;;;;5128111;28;20076;-77
2022/09/25 06:07:36;;;;;;;16.95;14.52;;;;;;;;;;5128421;28;20073;-77
2022/09/25 06:10:01;;;;;;;20.20;16.10;;;;;;;;;;5128603;28;20024;-77
2022/09/25 06:12:30;;;;;;;19.60;13.68;;;;;;;;;;5128336;28;20023;-77
2022/09/25 06:14:56;;;;;;;19.48;14.20;;;;;;;;;;5128458;28;20023;-76
2022/09/25 06:17:21;;;;;;;22.17;13.88;;;;;;;;;;5119242;27;20071;-76
2022/09/25 06:19:46;;;;;;;28.77;16.02;;;;;;;;;;5115616;28;20026;-77
2022/09/25 06:22:12;;;;;;;22.75;13.45;;;;;;;;;;5116169;28;20055;-77
2022/09/25 06:24:38;;;;;;;12.45;8.50;;;;;;;;;;5115833;28;20458;-77
2022/09/25 06:27:05;;;;;;;12.82;8.32;;;;;;;;;;5115756;28;20024;-77
2022/09/25 06:29:30;;;;;;;11.57;8.35;;;;;;;;;;5115746;27;20020;-77
2022/09/25 06:31:55;;;;;;;12.27;8.48;;;;;;;;;;5115402;28;20038;-77
2022/09/25 06:34:21;;;;;;;11.00;8.20;;;;;;;;;;5115651;28;20495;-77
2022/09/25 06:36:47;;;;;;;9.25;8.20;;;;;;;;;;5115598;28;20034;-77
2022/09/25 06:39:12;;;;;;;8.30;6.47;;;;;;;;;;5114079;28;20020;-77
2022/09/25 06:41:39;;;;;;;7.75;6.15;;;;;;;;;;5115242;28;20043;-77
2022/09/25 06:44:04;;;;;;;7.70;6.03;;;;;;;;;;5115317;28;20102;-77
2022/09/25 06:46:30;;;;;;;6.07;5.18;;;;;;;;;;5114961;28;20421;-76
2022/09/25 06:48:58;;;;;;;6.20;5.55;;;;;;;;;;5114310;28;20023;-66
2022/09/25 06:51:24;;;;;;;6.80;5.85;;;;;;;;;;5115051;28;20023;-66
2022/09/25 06:53:52;;;;;;;6.68;6.07;;;;;;;;;;5114646;28;20095;-64
2022/09/25 06:56:18;;;;;;;9.13;6.25;;;;;;;;;;5115068;28;20406;-77
2022/09/25 06:58:43;;;;;;;9.55;6.60;;;;;;;;;;5113283;28;20106;-78
2022/09/25 07:01:10;;;;;;;7.25;6.55;;;;;;;;;;5115072;28;20077;-76
2022/09/25 07:03:45;;;;;;;7.03;6.38;;;;;;;;;;5114671;28;20015;-76
2022/09/25 07:06:14;;;;;;;8.70;6.43;;;;;;;;;;5131722;27;20039;-77
2022/09/25 07:08:39;;;;;;;19.02;13.00;;;;;;;;;;5134672;27;20106;-79
2022/09/25 07:11:05;;;;;;;34.28;25.17;;;;;;;;;;5116495;27;20480;-76
2022/09/25 07:13:32;;;;;;;31.25;19.92;;;;;;;;;;5135218;27;20064;-79
2022/09/25 07:16:10;;;;;;;26.75;17.25;;;;;;;;;;5135238;27;20109;-79
2022/09/25 07:18:35;;;;;;;21.02;14.27;;;;;;;;;;5134958;27;20031;-78
2022/09/25 07:21:09;;;;;;;11.70;10.00;;;;;;;;;;5134600;27;20023;-78
2022/09/25 07:23:35;;;;;;;11.02;10.00;;;;;;;;;;5116390;27;20113;-77
2022/09/25 07:26:21;;;;;;;14.18;12.13;;;;;;;;;;5116295;27;20499;-76
2022/09/25 07:28:47;;;;;;;8.07;7.28;;;;;;;;;;5133824;27;20031;-78
2022/09/25 07:31:13;;;;;;;7.55;6.80;;;;;;;;;;5116331;27;20026;-78
2022/09/25 07:33:39;;;;;;;8.50;7.57;;;;;;;;;;5116321;27;20030;-80
2022/09/25 07:36:05;;;;;;;8.35;7.55;;;;;;;;;;5134558;27;20011;-79
2022/09/25 07:38:31;;;;;;;7.10;6.50;;;;;;;;;;5133875;27;20538;-78
2022/09/25 07:40:56;;;;;;;8.32;6.55;;;;;;;;;;5116421;27;20099;-79
2022/09/25 07:43:22;;;;;;;13.65;10.25;;;;;;;;;;5134926;27;20038;-79
2022/09/25 07:45:52;;;;;;;63.95;46.80;;;;;;;;;;5116270;27;20027;-79
2022/09/25 07:48:18;;;;;;;10.10;9.10;;;;;;;;;;5099097;27;20035;-78
2022/09/25 07:50:44;;;;;;;13.02;10.75;;;;;;;;;;5115586;27;20019;-77
2022/09/25 07:53:11;;;;;;;10.85;9.75;;;;;;;;;;5133980;27;20390;-79
2022/09/25 07:55:36;;;;;;;9.93;8.93;;;;;;;;;;5134389;27;20037;-78
2022/09/25 07:58:01;;;;;;;8.60;7.70;;;;;;;;;;5134207;27;20027;-77
2022/09/25 08:00:27;;;;;;;10.13;6.47;;;;;;;;;;5115717;27;20011;-77
2022/09/25 08:02:56;;;;;;;8.13;7.07;;;;;;;;;;5133874;27;20505;-77
2022/09/25 08:05:21;;;;;;;8.45;7.40;;;;;;;;;;5133467;27;20043;-77
2022/09/25 08:07:47;;;;;;;8.48;7.50;;;;;;;;;;5133797;27;20026;-77
2022/09/25 08:10:12;;;;;;;10.27;7.55;;;;;;;;;;5115438;27;20026;-77
2022/09/25 08:12:39;;;;;;;9.27;8.10;;;;;;;;;;5134065;27;20423;-79
2022/09/25 08:15:05;;;;;;;8.93;7.30;;;;;;;;;;5133879;27;20034;-77
2022/09/25 08:17:30;;;;;;;9.85;7.85;;;;;;;;;;5133651;27;20469;-78
2022/09/25 08:19:56;;;;;;;39.75;22.63;;;;;;;;;;5133674;27;20023;-76
2022/09/25 08:22:21;;;;;;;22.05;13.57;;;;;;;;;;5134017;27;20033;-80
2022/09/25 08:24:48;;;;;;;10.32;7.68;;;;;;;;;;5115138;27;20026;-79
2022/09/25 08:27:13;;;;;;;8.45;7.35;;;;;;;;;;5115290;27;20223;-80
2022/09/25 08:29:39;;;;;;;9.32;7.32;;;;;;;;;;5133180;27;20098;-77
2022/09/25 08:32:05;;;;;;;14.90;9.52;;;;;;;;;;5115479;27;20062;-80
2022/09/25 08:34:31;;;;;;;10.18;6.15;;;;;;;;;;5133560;27;20049;-79
2022/09/25 08:36:57;;;;;;;7.43;5.88;;;;;;;;;;5115314;27;20035;-80
2022/09/25 08:39:22;;;;;;;15.45;9.55;;;;;;;;;;5114598;27;20480;-77
2022/09/25 08:41:54;;;;;;;22.10;11.80;;;;;;;;;;5133425;27;20449;-76
2022/09/25 08:44:23;;;;;;;32.42;20.58;;;;;;;;;;5133186;27;20019;-75
2022/09/25 08:49:37;;;;;;;27.15;18.15;;;;;;;;;;5133237;27;20027;-77
2022/09/25 08:52:05;;;;;;;18.75;11.68;;;;;;;;;;5133376;27;20023;-76
2022/09/25 08:54:32;;;;;;;19.00;11.15;;;;;;;;;;5115172;27;20015;-76
2022/09/25 08:57:00;;;;;;;18.00;10.25;;;;;;;;;;5132978;27;20067;-77
2022/09/25 08:59:41;;;;;;;13.55;10.30;;;;;;;;;;5097425;27;20084;-78
2022/09/25 09:02:32;;;;;;;12.38;8.38;;;;;;;;;;5133269;27;20749;-78
2022/09/25 09:05:00;;;;;;;13.85;9.52;;;;;;;;;;5127746;28;20039;-75
2022/09/25 09:07:33;;;;;;;12.50;8.25;;;;;;;;;;5133239;28;20055;-77
2022/09/25 09:10:17;;;;;;;8.90;7.18;;;;;;;;;;5114563;28;20377;-77
2022/09/25 09:12:44;;;;;;;8.07;6.72;;;;;;;;;;5115029;28;20031;-75
2022/09/25 09:15:15;;;;;;;12.73;8.45;;;;;;;;;;5133130;28;20015;-77
2022/09/25 09:17:41;;;;;;;7.15;6.30;;;;;;;;;;5114548;28;20037;-77
2022/09/25 09:20:15;;;;;;;11.82;8.02;;;;;;;;;;5132941;28;20418;-76
2022/09/25 09:22:43;;;;;;;10.30;6.90;;;;;;;;;;5114365;28;20057;-75
2022/09/25 09:25:23;;;;;;;9.07;6.63;;;;;;;;;;5132902;28;20024;-75
2022/09/25 09:27:49;;;;;;;9.32;7.68;;;;;;;;;;5132935;28;20027;-76
2022/09/25 09:30:20;;;;;;;8.95;7.18;;;;;;;;;;5132768;28;20433;-76
2022/09/25 09:32:48;;;;;;;9.93;7.05;;;;;;;;;;5132818;28;20027;-75
2022/09/25 09:35:19;;;;;;;9.18;6.85;;;;;;;;;;5115828;28;20019;-75
2022/09/25 09:37:44;;;;;;;10.18;6.90;;;;;;;;;;5116054;28;20384;-75
2022/09/25 09:40:10;;;;;;;10.52;7.10;;;;;;;;;;5115881;28;20022;-75
2022/09/25 09:42:46;;;;;;;9.85;6.35;;;;;;;;;;5116005;28;20408;-76
2022/09/25 09:45:31;;;;;;;13.40;7.00;;;;;;;;;;5134428;28;20098;-75
2022/09/25 09:48:15;;;;;;;9.02;6.60;;;;;;;;;;5134364;28;20370;-74
2022/09/25 09:50:40;;;;;;;9.70;6.95;;;;;;;;;;5115690;27;20114;-76
2022/09/25 09:53:09;;;;;;;10.20;7.15;;;;;;;;;;5137947;27;20058;-75
2022/09/25 09:55:40;;;;;;;7.88;6.53;;;;;;;;;;5119142;27;20031;-74
2022/09/25 09:58:21;;;;;;;10.45;7.68;;;;;;;;;;5101216;27;20031;-74
2022/09/25 10:00:48;;;;;;;10.68;7.75;;;;;;;;;;5137801;27;20042;-75
2022/09/25 10:03:22;;;;;;;9.82;7.90;;;;;;;;;;5119813;27;20018;-74
2022/09/25 10:05:48;;;;;;;10.20;7.75;;;;;;;;;;5137019;27;20118;-74
2022/09/25 10:08:14;;;;;;;11.00;7.95;;;;;;;;;;5135702;27;20339;-74
2022/09/25 10:10:41;;;;;;;12.55;8.80;;;;;;;;;;5135630;27;20023;-74
2022/09/25 10:13:31;;;;;;;9.85;7.22;;;;;;;;;;5117297;27;20421;-74
2022/09/25 10:16:04;;;;;;;10.48;7.88;;;;;;;;;;5135552;27;20039;-74
2022/09/25 10:18:49;;;;;;;10.77;8.00;;;;;;;;;;5135524;27;20023;-74
2022/09/25 10:21:17;;;;;;;9.57;7.43;;;;;;;;;;5117471;27;20062;-74
2022/09/25 10:23:45;;;;;;;14.68;10.20;;;;;;;;;;5135462;27;20029;-74
2022/09/25 10:26:31;;;;;;;14.27;10.40;;;;;;;;;;5135262;27;20049;-74
2022/09/25 10:28:58;;;;;;;12.07;9.52;;;;;;;;;;5100249;27;20049;-74
2022/09/25 10:31:25;;;;;;;19.20;12.65;;;;;;;;;;5135767;27;20020;-74
2022/09/25 10:33:58;;;;;;;15.95;11.50;;;;;;;;;;5136273;27;20098;-74
2022/09/25 10:36:43;;;;;;;16.20;10.02;;;;;;;;;;5137514;27;20039;-74
2022/09/25 10:39:29;;;;;;;13.05;10.05;;;;;;;;;;5137156;27;20041;-74
2022/09/25 10:41:54;;;;;;;25.42;15.60;;;;;;;;;;5136439;27;20114;-74
2022/09/25 10:44:33;;;;;;;27.98;17.92;;;;;;;;;;5116841;27;20516;-74
2022/09/25 10:50:13;;;;;;;14.27;9.25;;;;;;;;;;5118250;27;20401;-74
2022/09/25 10:52:52;;;;;;;13.88;9.77;;;;;;;;;;5136702;27;20019;-74
2022/09/25 10:55:19;;;;;;;13.30;10.10;;;;;;;;;;5136715;27;20034;-74
2022/09/25 10:57:45;;;;;;;25.02;15.68;;;;;;;;;;5136906;27;20030;-74
2022/09/25 11:00:21;;;;;;;23.00;15.20;;;;;;;;;;5136985;27;20118;-73
2022/09/25 11:02:51;;;;;;;20.95;14.77;;;;;;;;;;5116514;22;20513;-77
2022/09/25 11:05:18;;;;;;;22.50;15.73;;;;;;;;;;5055000;28;20032;-76
2022/09/25 11:07:51;;;;;;;26.02;16.98;;;;;;;;;;5055471;28;20020;-76
2022/09/25 11:10:24;;;;;;;28.73;18.55;;;;;;;;;;5055407;28;20025;-76
2022/09/25 11:12:50;;;;;;;31.15;20.40;;;;;;;;;;5055356;28;20028;-76
2022/09/25 11:15:18;;;;;;;28.38;19.15;;;;;;;;;;5055319;28;20021;-76
2022/09/25 11:17:45;;;;;;;38.38;22.42;;;;;;;;;;5037496;28;20483;-77
2022/09/25 11:20:15;;;;;;;85.60;42.88;;;;;;;;;;5055153;28;20027;-76
2022/09/25 11:22:42;;;;;;;16.67;12.27;;;;;;;;;;5055242;28;20041;-77
2022/09/25 11:25:12;;;;;;;9.05;7.60;;;;;;;;;;5055114;28;20027;-76
2022/09/25 11:27:45;;;;;;;11.07;7.75;;;;;;;;;;5055141;28;20039;-74
2022/09/25 11:30:15;;;;;;;9.85;8.27;;;;;;;;;;5055107;28;20021;-75
2022/09/25 11:32:45;;;;;;;11.73;9.32;;;;;;;;;;5037480;28;20432;-76
2022/09/25 11:35:13;;;;;;;12.48;9.07;;;;;;;;;;5055009;28;20028;-76
2022/09/25 11:37:45;;;;;;;13.70;9.65;;;;;;;;;;5054937;28;20112;-75
2022/09/25 11:43:12;;;;;;;10.55;7.63;;;;;;;;;;5054776;28;20093;-77
2022/09/25 11:45:37;;;;;;;11.43;8.63;;;;;;;;;;5054849;28;20025;-76
2022/09/25 11:48:04;;;;;;;10.25;8.50;;;;;;;;;;5036952;28;20025;-75
2022/09/25 11:50:56;;;;;;;12.48;9.00;;;;;;;;;;5054650;28;20513;-77
2022/09/25 11:53:33;;;;;;;5.97;4.78;;;;;;;;;;5054726;28;20103;-76
2022/09/25 11:56:08;;;;;;;4.85;4.40;;;;;;;;;;5054591;28;20025;-77
2022/09/25 11:58:36;;;;;;;5.30;4.88;;;;;;;;;;5054515;28;20467;-75
2022/09/25 12:01:15;;;;;;;5.45;4.47;;;;;;;;;;5054449;28;20064;-77
2022/09/25 12:03:59;;;;;;;9.35;6.78;;;;;;;;;;5028565;28;20472;-75
2022/09/25 12:06:25;;;;;;;3.85;3.53;;;;;;;;;;5034373;28;20038;-77
2022/09/25 12:09:09;;;;;;;5.13;4.55;;;;;;;;;;5034360;28;20027;-77
2022/09/25 12:11:55;;;;;;;4.43;3.85;;;;;;;;;;5016597;28;20025;-76
2022/09/25 12:14:26;;;;;;;6.60;5.50;;;;;;;;;;5016086;28;20116;-77
2022/09/25 12:16:51;;;;;;;;;;;;;;;;;;5034657;28;20036;-74
2022/09/25 12:19:37;;;;;;;4.57;4.18;;;;;;;;;;5016684;28;19905;-76
2022/09/25 12:22:25;;;;;;;6.70;5.25;;;;;;;;;;4984373;28;20040;-76
2022/09/25 12:24:58;;;;;;;7.07;4.90;;;;;;;;;;4987570;28;20183;-77
2022/09/25 12:27:29;;;;;;;13.75;9.05;;;;;;;;;;5034197;28;20030;-77
2022/09/25 12:29:54;;;;;;;;;;;;;;;;;;5016758;28;20079;-76
2022/09/25 12:32:20;;;;;;;5.10;4.68;;;;;;;;;;5034033;28;19905;-77
2022/09/25 12:35:06;;;;;;;5.05;4.57;;;;;;;;;;5016392;28;20036;-76
2022/09/25 12:37:31;;;;;;;4.80;4.40;;;;;;;;;;5033895;28;20448;-73
2022/09/25 12:40:01;;;;;;;4.63;4.20;;;;;;;;;;5033975;28;20045;-75
2022/09/25 12:42:45;;;;;;;13.40;11.93;;;;;;;;;;5033923;28;20041;-76
2022/09/25 12:45:17;;;;;;;12.43;8.05;;;;;;;;;;5033797;28;20036;-75
2022/09/25 12:47:59;;;;;;;4.85;4.50;;;;;;;;;;5016109;28;20032;-74
2022/09/25 12:50:29;;;;;;;4.15;3.85;;;;;;;;;;5016205;28;20097;-74
2022/09/25 12:53:13;;;;;;;4.68;3.95;;;;;;;;;;5033780;28;20030;-76
2022/09/25 12:55:51;;;;;;;4.25;3.80;;;;;;;;;;4999651;28;20037;-76
2022/09/25 12:58:22;;;;;;;5.78;4.47;;;;;;;;;;5033650;28;20358;-76
2022/09/25 13:00:49;;;;;;;7.00;5.50;;;;;;;;;;5033605;28;20116;-76
2022/09/25 13:03:21;;;;;;;24.52;12.48;;;;;;;;;;5037667;28;20052;-77
2022/09/25 13:05:50;;;;;;;11.65;7.65;;;;;;;;;;5053669;28;20044;-76
2022/09/25 13:08:26;;;;;;;4.85;4.18;;;;;;;;;;5035595;28;20032;-74
2022/09/25 13:10:53;;;;;;;5.32;4.82;;;;;;;;;;5053510;28;20025;-77
2022/09/25 13:13:21;;;;;;;8.43;5.05;;;;;;;;;;5053376;28;20017;-75
2022/09/25 13:16:04;;;;;;;5.20;4.38;;;;;;;;;;5053483;28;20040;-76
2022/09/25 13:18:32;;;;;;;6.00;4.82;;;;;;;;;;5035743;28;20025;-75
2022/09/25 13:21:16;;;;;;;5.25;4.75;;;;;;;;;;5053386;28;20044;-76
2022/09/25 13:23:42;;;;;;;10.13;6.80;;;;;;;;;;5053424;28;20078;-75
2022/09/25 13:26:10;;;;;;;6.60;5.32;;;;;;;;;;5053458;28;20112;-76
2022/09/25 13:28:37;;;;;;;6.60;5.32;;;;;;;;;;5039648;28;20122;-77
2022/09/25 13:31:02;;;;;;;7.10;4.97;;;;;;;;;;5055971;28;20032;-77
2022/09/25 13:33:28;;;;;;;7.05;5.07;;;;;;;;;;5039279;28;20033;-77
2022/09/25 13:36:07;;;;;;;6.18;5.10;;;;;;;;;;5057184;28;20031;-75
2022/09/25 13:41:22;;;;;;;6.75;5.30;;;;;;;;;;5078528;22;20521;-75
2022/09/25 13:43:48;;;;;;;6.47;5.60;;;;;;;;;;5077316;28;20028;-75
2022/09/25 13:46:13;;;;;;;12.18;7.10;;;;;;;;;;5077060;28;20017;-76
2022/09/25 13:48:39;;;;;;;6.70;5.80;;;;;;;;;;5076978;28;20390;-76
2022/09/25 13:51:19;;;;;;;6.60;5.25;;;;;;;;;;5076900;28;20382;-76
2022/09/25 13:53:58;;;;;;;6.90;4.63;;;;;;;;;;5077038;28;20032;-76
2022/09/25 13:56:24;;;;;;;7.63;5.13;;;;;;;;;;5076848;28;20064;-76
2022/09/25 13:59:09;;;;;;;6.25;5.22;;;;;;;;;;5077128;28;20021;-75
2022/09/25 14:01:41;;;;;;;5.85;5.30;;;;;;;;;;5076743;28;20098;-76
2022/09/25 14:04:12;;;;;;;7.40;5.53;;;;;;;;;;5076614;28;20056;-77
2022/09/25 14:06:40;;;;;;;5.82;5.18;;;;;;;;;;5076807;28;20028;-76
2022/09/25 14:09:08;;;;;;;5.43;4.82;;;;;;;;;;5076712;28;20023;-76
2022/09/25 14:11:36;;;;;;;5.43;4.70;;;;;;;;;;5076472;28;20025;-76
2022/09/25 14:14:05;;;;;;;6.55;5.30;;;;;;;;;;5076521;28;20405;-77
2022/09/25 14:16:32;;;;;;;6.75;5.30;;;;;;;;;;5075052;28;20107;-78
2022/09/25 14:18:59;;;;;;;8.00;5.18;;;;;;;;;;5057861;28;20029;-75
2022/09/25 14:21:27;;;;;;;6.45;5.72;;;;;;;;;;5057576;28;20029;-76
2022/09/25 14:23:53;;;;;;;5.75;4.75;;;;;;;;;;5075206;28;20039;-79
2022/09/25 14:26:21;;;;;;;5.47;4.93;;;;;;;;;;5075299;28;20081;-71
2022/09/25 14:28:47;;;;;;;7.63;6.93;;;;;;;;;;5074820;28;20008;-72
2022/09/25 14:31:20;;;;;;;11.38;7.55;;;;;;;;;;5075570;28;20028;-72
2022/09/25 14:34:04;;;;;;;8.20;5.63;;;;;;;;;;5075652;28;20111;-72
2022/09/25 14:36:49;;;;;;;8.65;5.75;;;;;;;;;;5075851;28;20043;-72
2022/09/25 14:39:24;;;;;;;13.63;10.02;;;;;;;;;;5074891;28;20043;-72
2022/09/25 14:42:08;;;;;;;6.35;5.35;;;;;;;;;;5074292;28;20437;-72
2022/09/25 14:44:40;;;;;;;6.40;5.55;;;;;;;;;;5056329;28;20021;-72
2022/09/25 14:47:09;;;;;;;15.65;10.27;;;;;;;;;;5073579;28;20035;-72
2022/09/25 14:49:37;;;;;;;20.48;11.85;;;;;;;;;;5050134;28;20020;-72
2022/09/25 14:52:10;;;;;;;11.13;7.82;;;;;;;;;;5074137;28;20064;-72
2022/09/25 14:54:39;;;;;;;7.55;5.93;;;;;;;;;;5072074;28;20027;-71
2022/09/25 14:57:06;;;;;;;5.97;5.38;;;;;;;;;;5071764;28;20512;-71
2022/09/25 14:59:41;;;;;;;6.45;5.85;;;;;;;;;;5070712;28;20024;-71
2022/09/25 15:02:25;;;;;;;6.13;5.63;;;;;;;;;;5052366;28;20102;-72
2022/09/25 15:04:55;;;;;;;6.22;5.18;;;;;;;;;;5070216;28;20475;-71